createdAt,value
2022-12-09T00:00:34.699Z,18.98
2022-12-09T00:03:07.668Z,18.82
2022-12-09T00:05:42.346Z,18.42
2022-12-09T00:08:15.027Z,18.10
2022-12-09T00:10:47.828Z,17.12
2022-12-09T00:13:20.679Z,18.65
2022-12-09T00:15:54.306Z,17.70
2022-12-09T00:18:27.805Z,17.40
2022-12-09T00:21:00.339Z,16.87
2022-12-09T00:23:32.854Z,17.30
2022-12-09T00:26:05.536Z,17.02
2022-12-09T00:28:38.244Z,16.67
2022-12-09T00:31:15.001Z,18.48
2022-12-09T00:33:47.858Z,17.50
2022-12-09T00:36:22.420Z,16.70
2022-12-09T00:38:56.748Z,18.37
2022-12-09T00:41:29.498Z,16.07
2022-12-09T00:44:01.962Z,18.62
2022-12-09T00:46:35.160Z,17.75
2022-12-09T00:49:08.404Z,17.55
2022-12-09T00:51:41.694Z,16.48
2022-12-09T00:54:14.923Z,18.80
2022-12-09T00:56:47.776Z,18.43
2022-12-09T00:59:20.963Z,16.90
2022-12-09T01:01:54.592Z,17.02
2022-12-09T01:04:28.057Z,18.67
2022-12-09T01:07:01.227Z,18.00
2022-12-09T01:09:35.852Z,16.97
2022-12-09T01:12:09.261Z,16.30
2022-12-09T01:14:42.206Z,15.60
2022-12-09T01:17:15.082Z,13.18
2022-12-09T01:19:48.803Z,13.90
2022-12-09T01:22:21.440Z,14.05
2022-12-09T01:24:54.615Z,14.25
2022-12-09T01:27:27.678Z,13.70
2022-12-09T01:30:00.861Z,13.68
2022-12-09T01:32:33.665Z,14.53
2022-12-09T01:35:07.257Z,13.28
2022-12-09T01:37:40.214Z,14.68
2022-12-09T01:40:17.178Z,13.65
2022-12-09T01:42:52.137Z,13.08
2022-12-09T01:45:32.751Z,13.80
2022-12-09T01:48:17.365Z,13.18
2022-12-09T01:51:02.348Z,13.98
2022-12-09T01:53:38.839Z,13.43
2022-12-09T01:56:25.700Z,13.35
2022-12-09T01:59:01.941Z,13.88
2022-12-09T02:01:34.548Z,14.55
2022-12-09T02:04:08.072Z,14.20
2022-12-09T02:06:42.048Z,12.88
2022-12-09T02:09:15.533Z,13.65
2022-12-09T02:14:51.242Z,15.35
2022-12-09T02:17:35.190Z,14.03
2022-12-09T02:20:27.064Z,14.83
2022-12-09T02:23:07.465Z,14.78
2022-12-09T02:25:50.905Z,14.63
2022-12-09T02:28:37.234Z,14.70
2022-12-09T02:32:16.358Z,15.88
2022-12-09T02:35:03.278Z,15.80
2022-12-09T02:37:41.111Z,15.55
2022-12-09T02:40:24.228Z,15.88
2022-12-09T02:42:57.048Z,15.20
2022-12-09T02:45:29.894Z,14.75
2022-12-09T02:48:03.053Z,15.43
2022-12-09T02:50:38.095Z,14.15
2022-12-09T02:53:12.963Z,15.03
2022-12-09T02:55:46.423Z,15.58
2022-12-09T02:58:19.622Z,14.68
2022-12-09T03:00:52.389Z,14.78
2022-12-09T03:03:25.372Z,15.48
2022-12-09T03:06:11.541Z,15.00
2022-12-09T03:08:51.532Z,13.43
2022-12-09T03:11:25.596Z,13.32
2022-12-09T03:14:30.890Z,15.57
2022-12-09T03:17:08.297Z,14.03
2022-12-09T03:20:02.311Z,15.23
2022-12-09T03:22:36.297Z,13.85
2022-12-09T03:25:31.484Z,13.88
2022-12-09T03:28:13.857Z,13.03
2022-12-09T03:30:47.067Z,13.15
2022-12-09T03:33:20.450Z,14.03
2022-12-09T03:35:57.721Z,13.25
2022-12-09T03:38:33.899Z,14.47
2022-12-09T03:41:30.873Z,14.60
2022-12-09T03:44:13.912Z,14.63
2022-12-09T03:46:47.000Z,14.18
2022-12-09T03:49:20.195Z,13.93
2022-12-09T03:52:00.320Z,14.03
2022-12-09T03:54:40.896Z,14.20
2022-12-09T03:57:18.953Z,16.32
2022-12-09T03:59:58.613Z,15.20
2022-12-09T04:02:31.518Z,16.57
2022-12-09T04:05:04.358Z,15.28
2022-12-09T04:07:38.067Z,17.80
2022-12-09T04:10:11.124Z,17.00
2022-12-09T04:12:44.603Z,18.00
2022-12-09T04:15:17.556Z,15.20
2022-12-09T04:17:50.572Z,16.80
2022-12-09T04:20:23.088Z,15.08
2022-12-09T04:22:56.895Z,15.15
2022-12-09T04:25:29.789Z,15.83
2022-12-09T04:28:02.339Z,15.60
2022-12-09T04:30:35.084Z,15.30
2022-12-09T04:33:07.776Z,14.95
2022-12-09T04:35:41.571Z,13.45
2022-12-09T04:38:14.174Z,12.98
2022-12-09T04:40:46.714Z,12.47
2022-12-09T04:43:19.348Z,13.68
2022-12-09T04:45:51.955Z,13.95
2022-12-09T04:48:24.695Z,12.50
2022-12-09T04:50:57.325Z,10.85
2022-12-09T04:53:30.004Z,10.82
2022-12-09T04:56:04.902Z,10.95
2022-12-09T04:58:38.470Z,10.10
2022-12-09T05:01:13.153Z,10.88
2022-12-09T05:03:47.904Z,11.28
2022-12-09T05:06:22.421Z,10.88
2022-12-09T05:08:55.308Z,9.68
2022-12-09T05:11:28.895Z,10.75
2022-12-09T05:14:03.013Z,11.03
2022-12-09T05:16:35.796Z,11.00
2022-12-09T05:19:10.607Z,11.30
2022-12-09T05:21:44.054Z,10.60
2022-12-09T05:24:16.780Z,9.50
2022-12-09T05:26:49.591Z,9.60
2022-12-09T05:29:23.875Z,10.08
2022-12-09T05:31:57.407Z,9.70
2022-12-09T05:34:30.493Z,10.72
2022-12-09T05:37:03.729Z,10.25
2022-12-09T05:39:36.362Z,10.55
2022-12-09T05:42:09.936Z,10.32
2022-12-09T05:44:42.829Z,11.63
2022-12-09T05:47:15.720Z,9.20
2022-12-09T05:49:49.576Z,10.53
2022-12-09T05:52:22.240Z,10.45
2022-12-09T05:54:55.469Z,10.72
2022-12-09T05:57:28.391Z,11.12
2022-12-09T06:00:00.897Z,10.20
2022-12-09T06:02:35.872Z,10.60
2022-12-09T06:05:10.303Z,10.30
2022-12-09T06:07:44.131Z,12.10
2022-12-09T06:10:17.674Z,11.43
2022-12-09T06:12:51.224Z,13.35
2022-12-09T06:15:29.607Z,11.63
2022-12-09T06:17:58.792Z,10.60
2022-12-09T06:20:31.468Z,10.68
2022-12-09T06:23:15.471Z,12.45
2022-12-09T06:25:48.434Z,12.50
2022-12-09T06:28:21.574Z,12.40
2022-12-09T06:30:54.534Z,12.55
2022-12-09T06:33:53.663Z,13.88
2022-12-09T06:36:05.301Z,13.05
2022-12-09T06:38:38.854Z,15.60
2022-12-09T06:41:14.262Z,14.50
2022-12-09T06:43:47.495Z,13.18
2022-12-09T06:46:26.104Z,13.48
2022-12-09T06:48:59.383Z,12.88
2022-12-09T06:51:32.593Z,14.75
2022-12-09T06:54:07.273Z,14.40
2022-12-09T06:56:40.434Z,14.45
2022-12-09T06:59:13.239Z,14.10
2022-12-09T07:01:46.767Z,14.55
2022-12-09T07:04:19.696Z,16.87
2022-12-09T07:06:52.931Z,18.48
2022-12-09T15:53:07.041Z,22.05
2022-12-09T15:55:52.923Z,22.25
2022-12-09T15:58:30.541Z,24.25
2022-12-09T16:01:03.506Z,22.17
2022-12-09T16:03:36.885Z,25.37
2022-12-09T16:06:10.300Z,24.80
2022-12-09T16:08:46.811Z,25.33
2022-12-09T16:11:43.538Z,24.85
2022-12-09T16:14:16.707Z,23.73
2022-12-09T16:16:58.065Z,25.08
2022-12-09T16:19:38.426Z,24.67
2022-12-09T16:22:24.834Z,25.45
2022-12-09T16:25:16.564Z,25.43
2022-12-09T16:30:30.959Z,28.57
2022-12-09T16:33:05.108Z,32.13
2022-12-09T16:35:44.386Z,32.73
2022-12-09T16:38:19.519Z,31.95
2022-12-09T16:40:56.740Z,32.73
2022-12-09T16:43:30.693Z,30.85
2022-12-09T16:46:27.769Z,30.23
2022-12-09T16:49:04.768Z,30.20
2022-12-09T16:51:36.208Z,28.95
2022-12-09T16:54:20.087Z,27.77
2022-12-09T16:56:51.514Z,26.75
2022-12-09T16:59:24.015Z,26.62
2022-12-09T17:01:56.534Z,26.00
2022-12-09T17:04:29.917Z,27.25
2022-12-09T17:07:02.359Z,27.65
2022-12-09T17:09:35.483Z,28.00
2022-12-09T17:12:08.557Z,26.85
2022-12-09T17:14:41.176Z,26.42
2022-12-09T17:17:13.672Z,27.50
2022-12-09T17:19:46.926Z,28.40
2022-12-09T17:22:20.859Z,27.67
2022-12-09T17:24:53.409Z,26.82
2022-12-09T17:27:25.827Z,27.50
2022-12-09T17:29:58.586Z,27.48
2022-12-09T17:32:31.165Z,26.62
2022-12-09T17:35:07.467Z,26.33
2022-12-09T17:40:10.959Z,26.93
2022-12-09T17:42:43.491Z,29.25
2022-12-09T17:45:15.983Z,29.32
2022-12-09T17:47:50.233Z,29.07
2022-12-09T17:52:55.108Z,26.48
2022-12-09T17:55:29.092Z,38.58
2022-12-09T17:58:01.765Z,30.97
2022-12-09T18:00:34.262Z,28.05
2022-12-09T18:03:07.084Z,26.17
2022-12-09T18:05:40.212Z,27.27
2022-12-09T18:08:12.971Z,28.07
2022-12-09T18:10:45.637Z,28.12
2022-12-09T18:13:18.162Z,27.80
2022-12-09T18:15:54.290Z,26.40
2022-12-09T18:18:24.702Z,26.10
2022-12-09T18:21:01.788Z,27.13
2022-12-09T18:23:34.371Z,28.25
2022-12-09T18:26:15.403Z,27.95
2022-12-09T18:28:48.043Z,30.05
2022-12-09T18:31:20.420Z,30.00
2022-12-09T18:33:53.819Z,31.68
2022-12-09T18:36:28.057Z,33.58
2022-12-09T18:39:00.589Z,33.30
2022-12-09T18:41:34.127Z,33.93
2022-12-09T18:44:07.991Z,33.80
2022-12-09T18:46:43.691Z,31.73
2022-12-09T18:49:20.148Z,35.55
2022-12-09T18:51:53.318Z,31.00
2022-12-09T18:54:29.006Z,48.80
2022-12-09T18:57:04.743Z,35.30
2022-12-09T18:59:37.422Z,34.53
2022-12-09T19:02:13.091Z,35.25
2022-12-09T19:04:48.216Z,35.50
2022-12-09T19:07:20.624Z,33.35
2022-12-09T19:09:53.373Z,34.00
2022-12-09T19:15:00.624Z,35.13
2022-12-09T19:17:33.816Z,33.67
2022-12-09T19:20:08.028Z,35.00
2022-12-09T19:22:41.671Z,36.28
2022-12-09T19:25:14.114Z,35.60
2022-12-09T19:27:47.208Z,33.63
2022-12-09T19:30:19.874Z,35.40
2022-12-09T19:32:53.675Z,39.53
2022-12-09T19:35:26.439Z,35.30
2022-12-09T19:38:01.608Z,37.60
2022-12-09T19:40:34.273Z,36.68
2022-12-09T19:43:08.533Z,33.98
2022-12-09T19:48:12.615Z,35.43
2022-12-09T19:50:45.093Z,36.93
2022-12-09T19:53:17.914Z,37.75
2022-12-09T19:55:50.259Z,36.68
2022-12-09T19:58:23.279Z,33.45
2022-12-09T20:00:56.631Z,37.42
2022-12-09T20:03:29.150Z,38.23
2022-12-09T20:06:01.877Z,42.05
2022-12-09T20:08:34.315Z,41.88
2022-12-09T20:11:20.289Z,41.53
2022-12-09T20:13:53.201Z,38.40
2022-12-09T20:16:27.015Z,38.90
2022-12-09T20:19:00.515Z,39.50
2022-12-09T20:21:33.639Z,40.38
2022-12-09T20:24:06.825Z,42.58
2022-12-09T20:26:40.025Z,38.27
2022-12-09T20:29:12.563Z,40.83
2022-12-09T20:31:45.161Z,40.95
2022-12-09T20:34:18.197Z,41.53
2022-12-09T20:36:50.780Z,41.45
2022-12-09T20:39:23.304Z,41.73
2022-12-09T20:41:55.948Z,42.08
2022-12-09T20:44:29.287Z,42.35
2022-12-09T20:47:01.743Z,43.85
2022-12-09T20:49:34.141Z,45.28
2022-12-09T20:52:06.547Z,44.15
2022-12-09T20:54:39.133Z,47.75
2022-12-09T20:57:11.581Z,47.85
2022-12-09T20:59:44.164Z,49.45
2022-12-09T21:02:17.068Z,47.73
2022-12-09T21:04:49.558Z,42.93
2022-12-09T21:07:22.339Z,48.87
2022-12-09T21:09:54.715Z,47.30
2022-12-09T21:12:27.203Z,47.50
2022-12-09T21:14:59.883Z,50.23
2022-12-09T21:17:32.770Z,47.45
2022-12-09T21:20:06.225Z,47.13
2022-12-09T21:22:40.172Z,43.55
2022-12-09T21:25:12.578Z,44.50
2022-12-09T21:27:45.138Z,45.12
2022-12-09T21:30:17.434Z,41.28
2022-12-09T21:32:50.094Z,42.58
2022-12-09T21:35:23.172Z,42.33
2022-12-09T21:37:56.334Z,43.10
2022-12-09T21:40:28.859Z,43.02
2022-12-09T21:43:01.707Z,43.85
2022-12-09T21:45:35.656Z,43.63
2022-12-09T21:48:08.431Z,39.57
2022-12-09T21:50:40.732Z,40.38
2022-12-09T21:53:13.128Z,39.85
2022-12-09T21:55:45.967Z,39.23
2022-12-09T21:58:18.586Z,41.98
2022-12-09T22:00:52.059Z,38.80
2022-12-09T22:03:24.902Z,34.18
2022-12-09T22:05:59.456Z,36.13
2022-12-09T22:08:32.177Z,35.05
2022-12-09T22:11:11.035Z,35.45
2022-12-09T22:13:43.630Z,33.78
2022-12-09T22:16:20.090Z,33.83
2022-12-09T22:19:01.425Z,35.25
2022-12-09T22:21:34.658Z,36.50
2022-12-09T22:24:09.552Z,39.53
2022-12-09T22:26:44.339Z,35.90
2022-12-09T22:29:17.772Z,35.68
2022-12-09T22:31:50.234Z,37.43
2022-12-09T22:34:22.911Z,36.03
2022-12-09T22:36:56.077Z,38.42
2022-12-09T22:39:29.187Z,38.20
2022-12-09T22:42:01.751Z,37.63
2022-12-09T22:44:35.464Z,37.78
2022-12-09T22:47:08.822Z,37.60
2022-12-09T22:49:41.324Z,38.17
2022-12-09T22:52:14.219Z,37.75
2022-12-09T22:54:47.408Z,40.90
2022-12-09T22:57:19.803Z,40.45
2022-12-09T22:59:53.337Z,39.53
2022-12-09T23:02:26.248Z,44.48
2022-12-09T23:04:58.851Z,40.08
2022-12-09T23:07:31.428Z,40.25
2022-12-09T23:10:04.383Z,37.70
2022-12-09T23:12:37.449Z,38.90
2022-12-09T23:15:11.047Z,37.05
2022-12-09T23:17:43.666Z,38.23
2022-12-09T23:20:16.954Z,37.45
2022-12-09T23:22:49.359Z,36.95
2022-12-09T23:25:22.177Z,38.78
2022-12-09T23:27:54.901Z,34.45
2022-12-09T23:30:28.328Z,38.08
2022-12-09T23:33:00.865Z,34.78
2022-12-09T23:35:33.723Z,34.98
2022-12-09T23:38:06.399Z,34.53
2022-12-09T23:40:39.111Z,36.60
2022-12-09T23:43:11.530Z,36.48
2022-12-09T23:45:44.202Z,37.65
2022-12-09T23:48:16.638Z,39.23
2022-12-09T23:50:50.342Z,36.63
2022-12-09T23:53:23.526Z,36.75
2022-12-09T23:55:56.552Z,37.73
2022-12-09T23:58:29.029Z,38.38
